createdAt,value
2019-02-12T00:01:30.350Z,213.00
2019-02-12T00:04:01.712Z,198.75
2019-02-12T00:06:34.153Z,204.50
2019-02-12T00:09:07.529Z,239.75
2019-02-12T00:11:39.123Z,222.00
2019-02-12T00:14:10.556Z,224.75
2019-02-12T00:16:42.263Z,204.75
2019-02-12T00:19:13.527Z,212.25
2019-02-12T00:21:45.215Z,222.25
2019-02-12T00:24:17.055Z,202.25
2019-02-12T00:26:48.623Z,220.25
2019-02-12T00:29:20.611Z,207.00
2019-02-12T00:31:52.093Z,199.75
2019-02-12T00:34:23.879Z,223.75
2019-02-12T00:36:55.446Z,223.25
2019-02-12T00:39:27.435Z,218.75
2019-02-12T00:41:58.916Z,228.50
2019-02-12T00:44:30.297Z,203.25
2019-02-12T00:47:01.809Z,221.00
2019-02-12T00:49:34.316Z,229.75
2019-02-12T00:52:05.735Z,216.75
2019-02-12T00:54:37.383Z,221.75
2019-02-12T00:57:08.786Z,212.00
2019-02-12T00:59:40.016Z,206.00
2019-02-12T01:02:11.344Z,221.25
2019-02-12T01:04:43.428Z,218.00
2019-02-12T01:07:15.255Z,226.50
2019-02-12T01:09:46.702Z,219.00
2019-02-12T01:12:18.502Z,230.00
2019-02-12T01:14:50.141Z,218.50
2019-02-12T01:17:21.565Z,231.25
2019-02-12T01:19:52.835Z,239.25
2019-02-12T01:22:24.581Z,221.00
2019-02-12T01:24:56.145Z,219.75
2019-02-12T01:27:27.562Z,233.50
2019-02-12T01:29:59.143Z,230.75
2019-02-12T01:32:30.998Z,238.00
2019-02-12T01:35:02.496Z,243.75
2019-02-12T01:37:34.068Z,230.75
2019-02-12T01:40:05.780Z,235.00
2019-02-12T01:42:39.154Z,198.75
2019-02-12T01:45:11.887Z,217.25
2019-02-12T01:47:42.888Z,226.75
2019-02-12T01:50:15.317Z,218.75
2019-02-12T01:52:45.130Z,217.00
2019-02-12T01:55:16.329Z,216.50
2019-02-12T01:57:47.888Z,228.25
2019-02-12T02:00:19.201Z,234.00
2019-02-12T02:02:50.488Z,199.00
2019-02-12T02:05:21.791Z,252.25
2019-02-12T02:07:53.551Z,234.00
2019-02-12T02:10:25.047Z,230.75
2019-02-12T02:12:56.665Z,236.25
2019-02-12T02:15:28.506Z,232.00
2019-02-12T02:18:00.289Z,223.50
2019-02-12T02:20:31.412Z,213.50
2019-02-12T02:23:02.522Z,229.50
2019-02-12T02:25:33.716Z,234.75
2019-02-12T02:28:04.934Z,250.25
2019-02-12T02:30:36.151Z,246.00
2019-02-12T02:33:07.367Z,236.75
2019-02-12T02:35:39.701Z,246.00
2019-02-12T02:38:11.830Z,255.00
2019-02-12T02:40:43.059Z,248.75
2019-02-12T02:43:14.545Z,278.25
2019-02-12T02:45:46.235Z,274.50
2019-02-12T02:48:18.091Z,273.00
2019-02-12T02:50:49.533Z,263.25
2019-02-12T02:53:20.642Z,280.00
2019-02-12T02:55:52.011Z,274.00
2019-02-12T02:58:23.269Z,261.75
2019-02-12T03:00:54.353Z,285.75
2019-02-12T03:03:25.836Z,296.00
2019-02-12T03:05:57.122Z,308.50
2019-02-12T03:08:28.398Z,297.00
2019-02-12T03:10:59.669Z,268.00
2019-02-12T03:13:30.737Z,268.00
2019-02-12T03:16:02.338Z,268.00
2019-02-12T03:18:33.831Z,249.25
2019-02-12T03:21:05.328Z,236.50
2019-02-12T03:23:36.820Z,252.75
2019-02-12T03:26:08.085Z,240.25
2019-02-12T03:28:39.192Z,248.50
2019-02-12T03:31:12.570Z,242.50
2019-02-12T03:33:43.699Z,262.00
2019-02-12T03:36:15.848Z,260.75
2019-02-12T03:38:47.291Z,256.75
2019-02-12T03:41:18.819Z,255.50
2019-02-12T03:43:50.298Z,236.00
2019-02-12T03:46:22.213Z,239.50
2019-02-12T03:48:53.703Z,241.00
2019-02-12T03:51:25.363Z,230.50
2019-02-12T03:53:56.717Z,246.00
2019-02-12T03:56:28.088Z,262.75
2019-02-12T03:58:59.181Z,270.00
2019-02-12T04:01:30.468Z,284.25
2019-02-12T04:04:01.920Z,245.50
2019-02-12T04:06:33.501Z,238.25
2019-02-12T04:09:05.976Z,229.00
2019-02-12T04:11:36.955Z,243.00
2019-02-12T04:14:08.740Z,234.00
2019-02-12T04:16:41.121Z,230.25
2019-02-12T04:19:12.247Z,227.00
2019-02-12T04:21:44.343Z,236.50
2019-02-12T04:24:15.936Z,220.50
2019-02-12T04:26:47.773Z,233.25
2019-02-12T04:29:20.075Z,236.75
2019-02-12T04:31:51.602Z,232.75
2019-02-12T04:34:22.982Z,238.00
2019-02-12T04:36:54.553Z,234.75
2019-02-12T04:39:26.199Z,233.00
2019-02-12T04:41:57.618Z,230.00
2019-02-12T04:44:29.008Z,221.75
2019-02-12T04:47:01.412Z,212.50
2019-02-12T04:49:32.778Z,185.75
2019-02-12T04:52:04.920Z,196.00
2019-02-12T04:54:36.345Z,194.50
2019-02-12T04:57:07.795Z,202.50
2019-02-12T04:59:39.617Z,167.20
2019-02-12T05:02:11.500Z,170.80
2019-02-12T05:04:43.398Z,185.00
2019-02-12T05:07:15.330Z,161.20
2019-02-12T05:09:48.628Z,171.40
2019-02-12T05:12:21.654Z,169.00
2019-02-12T05:14:53.044Z,175.00
2019-02-12T05:17:24.596Z,161.00
2019-02-12T05:19:56.458Z,169.00
2019-02-12T05:22:28.483Z,198.00
2019-02-12T05:24:59.857Z,203.50
2019-02-12T05:27:31.683Z,176.50
2019-02-12T05:30:03.180Z,184.25
2019-02-12T05:32:35.732Z,181.75
2019-02-12T05:35:08.206Z,195.00
2019-02-12T05:37:40.744Z,213.25
2019-02-12T05:40:16.030Z,214.75
2019-02-12T05:42:47.602Z,189.50
2019-02-12T05:45:18.997Z,192.75
2019-02-12T05:47:50.771Z,188.25
2019-02-12T05:50:22.521Z,199.50
2019-02-12T05:52:55.114Z,174.60
2019-02-12T05:55:27.090Z,179.60
2019-02-12T05:57:58.590Z,207.50
2019-02-12T06:00:31.571Z,187.75
2019-02-12T06:03:04.550Z,206.00
2019-02-12T06:05:35.959Z,182.25
2019-02-12T06:08:08.008Z,149.60
2019-02-12T06:10:40.180Z,172.25
2019-02-12T06:13:11.741Z,174.40
2019-02-12T06:15:43.392Z,163.60
2019-02-12T06:18:14.602Z,176.75
2019-02-12T06:20:46.681Z,190.00
2019-02-12T06:23:18.401Z,182.50
2019-02-12T06:25:50.083Z,163.00
2019-02-12T06:28:21.646Z,156.00
2019-02-12T06:30:53.939Z,168.20
2019-02-12T06:33:25.605Z,156.60
2019-02-12T06:35:57.290Z,146.00
2019-02-12T06:38:28.907Z,173.80
2019-02-12T06:41:01.716Z,172.20
2019-02-12T06:43:35.447Z,166.20
2019-02-12T06:46:07.158Z,166.60
2019-02-12T06:48:38.723Z,188.00
2019-02-12T06:51:10.207Z,183.80
2019-02-12T06:53:42.063Z,180.00
2019-02-12T06:56:13.799Z,188.25
2019-02-12T06:58:46.343Z,177.00
2019-02-12T07:01:17.525Z,187.75
2019-02-12T07:04:09.564Z,192.00
2019-02-12T07:07:30.402Z,190.75
2019-02-12T07:10:06.808Z,197.00
2019-02-12T07:13:13.138Z,187.50
2019-02-12T07:16:15.940Z,193.50
2019-02-12T07:19:15.322Z,193.00
2019-02-12T07:22:32.702Z,176.40
2019-02-12T07:25:45.600Z,179.80
2019-02-12T07:28:50.920Z,164.80
2019-02-12T07:32:02.588Z,175.00
2019-02-12T07:34:52.671Z,167.60
2019-02-12T07:38:16.910Z,177.60
2019-02-12T07:41:20.022Z,165.40
2019-02-12T07:44:31.142Z,161.60
2019-02-12T07:47:38.337Z,169.60
2019-02-12T07:51:01.174Z,164.60
2019-02-12T07:54:12.584Z,171.20
2019-02-12T07:57:36.778Z,191.25
2019-02-12T08:00:59.659Z,170.60
2019-02-12T08:04:17.635Z,161.00
2019-02-12T08:07:36.779Z,174.00
2019-02-12T08:10:54.326Z,154.00
2019-02-12T08:13:50.043Z,148.60
2019-02-12T08:16:38.458Z,137.60
2019-02-12T08:20:03.468Z,134.60
2019-02-12T08:23:10.167Z,139.00
2019-02-12T08:26:14.218Z,129.60
2019-02-12T08:29:26.216Z,157.60
2019-02-12T08:32:29.661Z,121.20
2019-02-12T08:35:59.301Z,125.20
2019-02-12T08:38:44.064Z,126.80
2019-02-12T08:41:39.832Z,137.60
2019-02-12T08:44:30.320Z,131.00
2019-02-12T08:47:58.212Z,129.20
2019-02-12T08:55:06.936Z,125.40
2019-02-12T08:58:26.549Z,119.80
2019-02-12T09:01:15.540Z,117.80
2019-02-12T09:04:26.591Z,116.80
2019-02-12T09:07:43.841Z,120.00
2019-02-12T09:10:42.455Z,118.00
2019-02-12T09:13:36.776Z,112.60
2019-02-12T09:16:58.783Z,114.60
2019-02-12T09:20:26.050Z,105.20
2019-02-12T09:24:00.162Z,113.60
2019-02-12T09:26:59.726Z,115.40
2019-02-12T09:29:51.834Z,121.80
2019-02-12T09:33:18.534Z,110.00
2019-02-12T09:36:42.039Z,101.40
2019-02-12T09:39:51.874Z,119.20
2019-02-12T09:42:59.476Z,118.40
2019-02-12T09:46:11.304Z,111.60
2019-02-12T09:49:02.928Z,114.40
2019-02-12T09:51:41.543Z,120.20
2019-02-12T09:54:38.280Z,123.60
2019-02-12T09:57:57.041Z,107.80
2019-02-12T10:01:01.936Z,114.00
2019-02-12T10:04:14.339Z,119.60
2019-02-12T10:07:26.470Z,121.80
2019-02-12T10:10:24.296Z,107.20
2019-02-12T10:13:31.887Z,120.40
2019-02-12T10:16:32.953Z,105.60
2019-02-12T10:19:22.355Z,103.80
2019-02-12T10:22:35.248Z,128.20
2019-02-12T10:25:20.056Z,114.20
2019-02-12T10:28:17.617Z,116.20
2019-02-12T10:31:28.345Z,121.60
2019-02-12T10:34:00.222Z,119.80
2019-02-12T10:36:31.527Z,112.00
2019-02-12T10:39:03.042Z,117.60
2019-02-12T10:41:36.214Z,119.60
2019-02-12T10:44:08.732Z,117.80
2019-02-12T10:46:40.326Z,108.00
2019-02-12T10:49:11.867Z,106.40
2019-02-12T10:51:43.075Z,108.60
2019-02-12T10:54:14.862Z,113.20
2019-02-12T10:56:46.160Z,104.80
2019-02-12T10:59:17.513Z,112.00
2019-02-12T11:01:49.166Z,111.60
2019-02-12T11:04:21.615Z,106.60
2019-02-12T11:06:55.528Z,112.40
2019-02-12T11:09:30.271Z,113.00
2019-02-12T11:12:01.553Z,113.20
2019-02-12T11:14:33.349Z,122.60
2019-02-12T11:17:04.663Z,119.20
2019-02-12T11:19:36.330Z,112.60
2019-02-12T11:22:08.329Z,120.60
2019-02-12T11:24:39.881Z,113.60
2019-02-12T11:27:11.196Z,120.00
2019-02-12T11:29:43.164Z,113.00
2019-02-12T11:32:14.646Z,119.80
2019-02-12T11:34:46.245Z,133.00
2019-02-12T11:37:17.501Z,130.00
2019-02-12T11:39:49.195Z,121.80
2019-02-12T11:42:20.420Z,130.40
2019-02-12T11:44:52.049Z,131.20
2019-02-12T11:47:23.474Z,131.60
2019-02-12T11:49:55.174Z,122.20
2019-02-12T11:52:26.682Z,124.60
2019-02-12T11:54:58.146Z,122.40
2019-02-12T11:57:29.553Z,115.20
2019-02-12T12:00:01.141Z,122.80
2019-02-12T12:02:41.804Z,127.40
2019-02-12T12:05:08.629Z,117.80
2019-02-12T12:07:40.676Z,122.20
2019-02-12T12:10:12.534Z,122.20
2019-02-12T12:12:44.075Z,115.80
2019-02-12T12:15:15.859Z,119.40
2019-02-12T12:17:47.683Z,110.40
2019-02-12T12:20:19.221Z,118.40
2019-02-12T12:22:50.924Z,118.00
2019-02-12T12:25:22.136Z,114.40
2019-02-12T12:27:53.597Z,117.40
2019-02-12T12:30:25.192Z,108.20
2019-02-12T12:32:57.349Z,114.00
2019-02-12T12:35:28.650Z,110.00
2019-02-12T12:38:00.546Z,113.00
2019-02-12T12:40:32.169Z,109.80
2019-02-12T12:43:03.884Z,118.80
2019-02-12T12:45:35.529Z,113.60
2019-02-12T12:48:07.346Z,120.80
2019-02-12T12:50:38.791Z,135.00
2019-02-12T12:53:10.288Z,126.80
2019-02-12T12:55:41.749Z,141.20
2019-02-12T12:58:13.197Z,124.00
2019-02-12T13:00:44.441Z,137.60
2019-02-12T13:03:16.024Z,134.00
2019-02-12T13:05:49.732Z,127.40
2019-02-12T13:08:21.232Z,128.40
2019-02-12T13:10:55.481Z,128.20
2019-02-12T13:13:28.549Z,131.20
2019-02-12T13:16:00.221Z,122.80
2019-02-12T13:18:32.360Z,139.40
2019-02-12T13:21:04.404Z,130.20
2019-02-12T13:23:35.937Z,145.80
2019-02-12T13:26:07.375Z,138.40
2019-02-12T13:28:38.696Z,147.40
2019-02-12T13:31:09.920Z,143.80
2019-02-12T13:33:41.420Z,153.80
2019-02-12T13:36:14.198Z,148.60
2019-02-12T13:38:45.979Z,155.40
2019-02-12T13:41:17.657Z,157.20
2019-02-12T13:43:48.963Z,163.00
2019-02-12T13:46:20.702Z,157.80
2019-02-12T13:48:52.226Z,159.40
2019-02-12T13:51:23.750Z,162.60
2019-02-12T13:53:55.825Z,171.00
2019-02-12T13:56:27.338Z,165.20
2019-02-12T13:58:58.813Z,213.75
2019-02-12T14:01:30.423Z,170.75
2019-02-12T14:04:03.667Z,174.50
2019-02-12T14:06:37.491Z,193.50
2019-02-12T14:09:15.810Z,179.50
2019-02-12T14:11:48.858Z,199.75
2019-02-12T14:14:24.168Z,201.25
2019-02-12T14:17:03.152Z,203.25
2019-02-12T14:19:34.671Z,226.25
2019-02-12T14:22:06.095Z,249.50
2019-02-12T14:24:38.751Z,215.00
2019-02-12T14:27:10.211Z,231.75
2019-02-12T14:29:42.032Z,205.50
2019-02-12T14:32:13.176Z,208.75
2019-02-12T14:34:45.301Z,209.75
2019-02-12T14:37:17.011Z,207.25
2019-02-12T14:39:48.496Z,208.50
2019-02-12T14:42:20.144Z,192.75
2019-02-12T14:44:51.428Z,217.00
2019-02-12T14:47:22.600Z,204.75
2019-02-12T14:49:54.229Z,201.25
2019-02-12T14:52:25.353Z,210.00
2019-02-12T14:54:56.498Z,200.75
2019-02-12T14:57:27.892Z,217.50
2019-02-12T14:59:59.949Z,226.50
2019-02-12T15:02:31.915Z,213.50
2019-02-12T15:05:03.181Z,255.75
2019-02-12T15:07:34.757Z,288.00
2019-02-12T15:10:06.620Z,268.25
2019-02-12T15:12:38.019Z,283.75
2019-02-12T15:15:09.909Z,247.75
2019-02-12T15:17:41.417Z,260.75
2019-02-12T15:20:13.454Z,246.50
2019-02-12T15:22:45.093Z,256.50
2019-02-12T15:25:16.380Z,282.50
2019-02-12T15:27:48.198Z,389.00
2019-02-12T15:30:20.386Z,513.67
2019-02-12T15:32:51.897Z,508.80
2019-02-12T15:35:23.212Z,522.20
2019-02-12T15:37:54.379Z,455.80
2019-02-12T15:40:26.285Z,399.80
2019-02-12T15:42:57.720Z,359.00
2019-02-12T15:45:29.542Z,347.75
2019-02-12T15:48:00.980Z,324.00
2019-02-12T15:50:32.333Z,298.25
2019-02-12T15:53:03.650Z,307.00
2019-02-12T15:55:42.132Z,272.75
2019-02-12T15:58:08.084Z,275.25
2019-02-12T16:00:39.867Z,269.00
2019-02-12T16:03:12.493Z,266.00
2019-02-12T16:05:43.960Z,270.75
2019-02-12T16:08:15.369Z,273.75
2019-02-12T16:10:46.675Z,259.75
2019-02-12T16:13:18.147Z,265.25
2019-02-12T16:15:49.748Z,272.00
2019-02-12T16:18:22.916Z,278.00
2019-02-12T16:20:55.108Z,282.25
2019-02-12T16:23:26.689Z,267.00
2019-02-12T16:25:59.538Z,268.50
2019-02-12T16:28:31.128Z,273.00
2019-02-12T16:31:02.755Z,261.75
2019-02-12T16:33:34.623Z,253.00
2019-02-12T16:36:06.459Z,263.00
2019-02-12T16:38:38.433Z,251.25
2019-02-12T16:41:09.986Z,243.00
2019-02-12T16:43:41.430Z,238.25
2019-02-12T16:46:19.243Z,246.00
2019-02-12T16:48:52.174Z,233.00
2019-02-12T16:51:25.949Z,231.50
2019-02-12T16:54:00.258Z,225.75
2019-02-12T16:56:34.581Z,236.25
2019-02-12T16:59:11.511Z,235.00
2019-02-12T17:01:44.795Z,245.50
2019-02-12T17:04:16.466Z,235.25
2019-02-12T17:06:48.626Z,245.50
2019-02-12T17:09:20.195Z,237.00
2019-02-12T17:11:52.319Z,230.75
2019-02-12T17:14:23.790Z,225.00
2019-02-12T17:16:55.184Z,236.00
2019-02-12T17:19:26.839Z,226.75
2019-02-12T17:21:58.667Z,230.75
2019-02-12T17:24:30.830Z,249.50
2019-02-12T17:27:02.282Z,231.75
2019-02-12T17:29:34.947Z,235.50
2019-02-12T17:32:06.606Z,228.50
2019-02-12T17:34:37.961Z,255.25
2019-02-12T17:37:09.716Z,260.75
2019-02-12T17:39:41.545Z,261.50
2019-02-12T17:42:13.053Z,257.50
2019-02-12T17:44:44.568Z,265.75
2019-02-12T17:47:16.262Z,244.50
2019-02-12T17:49:47.873Z,259.50
2019-02-12T17:52:19.865Z,240.75
2019-02-12T17:54:51.232Z,243.75
2019-02-12T17:57:22.738Z,244.00
2019-02-12T17:59:54.097Z,232.50
2019-02-12T18:02:25.587Z,242.25
2019-02-12T18:04:57.098Z,233.75
2019-02-12T18:07:28.602Z,241.00
2019-02-12T18:10:00.109Z,237.00
2019-02-12T18:12:31.941Z,240.25
2019-02-12T18:15:03.112Z,227.00
2019-02-12T18:17:34.410Z,219.50
2019-02-12T18:20:05.961Z,213.75
2019-02-12T18:22:37.580Z,218.25
2019-02-12T18:25:09.683Z,219.00
2019-02-12T18:27:41.268Z,226.00
2019-02-12T18:30:14.398Z,215.50
2019-02-12T18:32:46.185Z,205.50
2019-02-12T18:35:17.430Z,192.25
2019-02-12T18:37:48.816Z,199.25
2019-02-12T18:40:20.340Z,193.00
2019-02-12T18:42:51.635Z,210.25
2019-02-12T18:45:22.796Z,205.25
2019-02-12T18:47:54.076Z,212.00
2019-02-12T18:50:25.568Z,192.50
2019-02-12T18:52:57.099Z,217.50
2019-02-12T18:55:28.461Z,205.50
2019-02-12T18:57:59.959Z,198.50
2019-02-12T19:00:31.362Z,184.75
2019-02-12T19:03:02.526Z,209.50
2019-02-12T19:05:33.808Z,202.50
2019-02-12T19:08:05.815Z,189.25
2019-02-12T19:10:37.736Z,185.25
2019-02-12T19:13:09.171Z,204.00
2019-02-12T19:15:40.427Z,201.50
2019-02-12T19:18:15.200Z,199.50
2019-02-12T19:20:46.674Z,198.75
2019-02-12T19:23:18.343Z,196.50
2019-02-12T19:25:49.708Z,188.50
2019-02-12T19:28:21.386Z,185.75
2019-02-12T19:30:52.861Z,203.75
2019-02-12T19:33:26.030Z,214.75
2019-02-12T19:35:57.685Z,194.25
2019-02-12T19:38:29.243Z,209.00
2019-02-12T19:41:00.801Z,215.25
2019-02-12T19:43:32.094Z,215.00
2019-02-12T19:46:03.453Z,208.25
2019-02-12T19:48:35.000Z,200.00
2019-02-12T19:51:06.699Z,213.75
2019-02-12T19:53:38.392Z,211.00
2019-02-12T19:56:10.013Z,211.75
2019-02-12T19:58:41.870Z,208.25
2019-02-12T20:01:13.768Z,196.50
2019-02-12T20:03:45.132Z,185.00
2019-02-12T20:06:16.832Z,200.00
2019-02-12T20:08:48.327Z,186.00
2019-02-12T20:11:19.965Z,205.00
2019-02-12T20:13:51.131Z,200.25
2019-02-12T20:16:22.794Z,198.00
2019-02-12T20:18:54.026Z,180.75
2019-02-12T20:21:25.445Z,194.25
2019-02-12T20:23:56.727Z,195.00
2019-02-12T20:26:28.108Z,202.00
2019-02-12T20:28:59.626Z,197.25
2019-02-12T20:31:31.957Z,189.75
2019-02-12T20:34:03.589Z,189.75
2019-02-12T20:36:36.587Z,199.00
2019-02-12T20:39:08.412Z,198.50
2019-02-12T20:41:40.226Z,195.25
2019-02-12T20:44:11.909Z,200.25
2019-02-12T20:46:43.599Z,203.00
2019-02-12T20:49:15.163Z,209.75
2019-02-12T20:51:46.458Z,203.25
2019-02-12T20:54:18.505Z,198.00
2019-02-12T20:56:49.975Z,200.00
2019-02-12T20:59:24.163Z,199.50
2019-02-12T21:01:55.584Z,203.25
2019-02-12T21:04:27.277Z,209.50
2019-02-12T21:06:59.005Z,201.00
2019-02-12T21:09:30.824Z,192.25
2019-02-12T21:12:02.601Z,201.25
2019-02-12T21:14:35.470Z,190.50
2019-02-12T21:17:07.077Z,212.25
2019-02-12T21:19:38.633Z,213.00
2019-02-12T21:22:11.103Z,191.00
2019-02-12T21:24:42.538Z,200.50
2019-02-12T21:27:14.088Z,219.00
2019-02-12T21:29:45.244Z,201.25
2019-02-12T21:32:16.840Z,196.25
2019-02-12T21:34:48.290Z,208.25
2019-02-12T21:37:20.410Z,197.50
2019-02-12T21:39:51.928Z,212.50
2019-02-12T21:42:23.335Z,214.00
2019-02-12T21:44:54.821Z,211.25
2019-02-12T21:47:26.518Z,208.25
2019-02-12T21:49:57.682Z,208.00
2019-02-12T21:52:29.219Z,215.25
2019-02-12T21:55:00.576Z,219.00
2019-02-12T21:57:32.325Z,209.00
2019-02-12T22:00:04.970Z,222.25
2019-02-12T22:02:37.985Z,221.50
2019-02-12T22:05:10.450Z,227.50
2019-02-12T22:07:43.085Z,216.00
2019-02-12T22:10:17.379Z,224.00
2019-02-12T22:12:50.041Z,232.50
2019-02-12T22:15:21.501Z,225.75
2019-02-12T22:17:53.382Z,227.50
2019-02-12T22:20:24.734Z,210.75
2019-02-12T22:22:56.250Z,220.50
2019-02-12T22:25:28.070Z,213.50
2019-02-12T22:27:59.899Z,211.25
2019-02-12T22:30:31.864Z,199.25
2019-02-12T22:33:03.277Z,204.25
2019-02-12T22:35:34.579Z,222.75
2019-02-12T22:38:06.326Z,210.75
2019-02-12T22:40:37.674Z,201.50
2019-02-12T22:43:09.113Z,203.75
2019-02-12T22:45:41.468Z,205.75
2019-02-12T22:48:12.813Z,199.75
2019-02-12T22:50:44.333Z,207.50
2019-02-12T22:53:15.925Z,211.00
2019-02-12T22:55:47.191Z,201.50
2019-02-12T22:58:19.068Z,202.00
2019-02-12T23:01:06.303Z,212.00
2019-02-12T23:03:38.982Z,193.50
2019-02-12T23:06:10.540Z,215.75
2019-02-12T23:08:42.284Z,210.50
2019-02-12T23:11:13.455Z,207.50
2019-02-12T23:13:45.113Z,209.00
2019-02-12T23:16:16.298Z,216.00
2019-02-12T23:18:47.723Z,209.75
2019-02-12T23:21:19.419Z,203.50
2019-02-12T23:23:51.327Z,214.25
2019-02-12T23:26:22.934Z,203.00
2019-02-12T23:28:54.961Z,216.50
2019-02-12T23:31:26.412Z,209.50
2019-02-12T23:33:58.017Z,201.00
2019-02-12T23:36:29.381Z,219.50
2019-02-12T23:39:00.874Z,213.50
2019-02-12T23:41:33.686Z,203.25
2019-02-12T23:44:05.221Z,214.25
2019-02-12T23:46:36.633Z,207.00
2019-02-12T23:49:08.165Z,210.75
2019-02-12T23:51:40.511Z,205.25
2019-02-12T23:54:12.035Z,208.00
2019-02-12T23:56:43.489Z,234.00
2019-02-12T23:59:15.027Z,200.00
